EGPD Airport Information

Runway Information
Runway 05 Length 1893 ft width 151 ft
Elevation 203 ft Threshold 0 ft Heading 46
Runway 23 Length 1893 ft Width 151 ft
Elevation 190 ft Threshold 0 ft Heading 226
Runway 14 Length 2165 ft width 75 ft
Elevation 200 ft Threshold 0 ft Heading 139
Runway 32 Length 2165 ft Width 75 ft
Elevation 197 ft Threshold 0 ft Heading 319
Runway 16 Length 6001 ft width 151 ft
Elevation 203 ft Threshold 0 ft Heading 158
Runway 34 Length 6001 ft Width 151 ft
Elevation 215 ft Threshold 0 ft Heading 338
Runway 18 Length 853 ft width 75 ft
Elevation 200 ft Threshold 0 ft Heading 179
Runway 36 Length 853 ft Width 75 ft
Elevation 199 ft Threshold 0 ft Heading 359
Airport Frequencies
Type APP Name ABERDEEN A Frequency 119.05 MHZ
Type ATIS Name ABERDEEN A Frequency 114.3 MHZ
Type GND Name ABERDEEN G Frequency 121.7 MHZ
Type INFO Name ABERDEEN I Frequency 135.175 MHZ
Type TWR Name ABERDEEN T Frequency 118.1 MHZ
Airport Navaids
Type VOR-DME Name Aberdeen Frequency 114300 KHZ
Type NDB Name Aberdeen Frequency 336 KHZ
Type NDB Name Aberdeen/Dyce Frequency 348 KHZ
Airport Weather Information & NOTAM
ADDS - METARS form results

(1538 UTC 26 May 2018)
Data provider http://aviationweather.gov/adds/metars/
 
METAR text: EGPD 261520Z AUTO 03009KT 350V070 9999 NCD 18/11 Q1031 NOSIG
Conditions at: EGPD (ABERDEEN/DYCE , GB) observed 1520 UTC 26 May 2018
Temperature: 18.0°C (64°F)
Dewpoint: 11.0°C (52°F) [RH = 64%]
Pressure (altimeter): 30.44 inches Hg (1031.0 mb)
Winds: from the NNE (30 degrees) at 10 MPH (9 knots; 4.7 m/s)
Visibility: 6 or more miles (10+ km)
Ceiling: at least 12,000 feet AGL
Clouds: sky clear below 12,000 feet AGL
Weather: no significant weather observed at this time

METAR text: EGPD 261450Z AUTO 02009KT 340V060 9999 NCD 19/12 Q1031
Conditions at: EGPD (ABERDEEN/DYCE , GB) observed 1450 UTC 26 May 2018
Temperature: 19.0°C (66°F)
Dewpoint: 12.0°C (54°F) [RH = 64%]
Pressure (altimeter): 30.44 inches Hg (1031.0 mb)
Winds: from the NNE (20 degrees) at 10 MPH (9 knots; 4.7 m/s)
Visibility: 6 or more miles (10+ km)
Ceiling: at least 12,000 feet AGL
Clouds: sky clear below 12,000 feet AGL
Weather: no significant weather observed at this time

Forecast for: EGPD (ABERDEEN/DYCE , GB)
Text: TAF EGPD 261100Z 2612/2712 03009KT 9999 FEW030
Forecast period: 1200 UTC 26 May 2018 to 1200 UTC 27 May 2018
Forecast type: FROM: standard forecast or significant change
Winds: from the NNE (30 degrees) at 10 MPH (9 knots; 4.7 m/s)
Visibility: 6 or more miles (10+ km)
Clouds: few clouds at 3000 feet AGL
Weather: no significant weather forecast for this period
Text: PROB30 2618/2706 6000 BKN006
Forecast period: 1800 UTC 26 May 2018 to 0600 UTC 27 May 2018
Forecast type: PROBABLE: 30 percent likelihood of the following during this time
Visibility: 4 miles (6 km)
Ceiling: 600 feet AGL
Clouds: broken clouds at 600 feet AGL
Weather: no significant weather forecast for this period